Inkster, Michigan
Current Conditions -  °F | °C
As of 6:29 AM on Sunday 23 Nov 2014 (Local Time) from KDTW Reporting Station
Overcast Overcast  
Wind Chill: 39°   Ceiling: 2800
Heat Index: 45°   Visibility: 10mi
Dew Point: 43°   Wind: 10mph
Humidity: 93%   Direction: 170°S
Pressure: 29.95"   Gusts: NA
Location:  42.3°N, 83.31°W
Report Text: KDTW 231129Z 17009KT 10SM OVC028 07/06 A2995 RMK AO2 $
Loading
Personal Weather Stations






























Interactive Weather Map New forecast layout! Learn more

10-Day Weather Forecast

Advertisements
Track Severe Weather on mobile